sensor_id;sensor_type;location;lat;lon;timestamp;P1;durP1;ratioP1;P2;durP2;ratioP2
17361;SDS011;8798;51.938;4.348;2023-05-02T00:00:32;11.97;;;6.47;;
17361;SDS011;8798;51.938;4.348;2023-05-02T00:03:02;13.20;;;6.97;;
17361;SDS011;8798;51.938;4.348;2023-05-02T00:05:31;12.97;;;6.87;;
17361;SDS011;8798;51.938;4.348;2023-05-02T00:08:00;15.03;;;7.03;;
17361;SDS011;8798;51.938;4.348;2023-05-02T00:10:28;11.83;;;6.57;;
17361;SDS011;8798;51.938;4.348;2023-05-02T00:12:56;12.23;;;7.17;;
17361;SDS011;8798;51.938;4.348;2023-05-02T00:15:23;13.77;;;6.80;;
17361;SDS011;8798;51.938;4.348;2023-05-02T00:17:52;14.83;;;7.40;;
17361;SDS011;8798;51.938;4.348;2023-05-02T00:20:20;13.13;;;6.83;;
17361;SDS011;8798;51.938;4.348;2023-05-02T00:22:48;15.37;;;6.80;;
17361;SDS011;8798;51.938;4.348;2023-05-02T00:25:17;13.53;;;6.77;;
17361;SDS011;8798;51.938;4.348;2023-05-02T00:27:45;13.17;;;6.13;;
17361;SDS011;8798;51.938;4.348;2023-05-02T00:30:16;13.23;;;6.30;;
17361;SDS011;8798;51.938;4.348;2023-05-02T00:32:45;12.23;;;6.67;;
17361;SDS011;8798;51.938;4.348;2023-05-02T00:35:12;11.17;;;5.73;;
17361;SDS011;8798;51.938;4.348;2023-05-02T00:37:40;11.30;;;6.20;;
17361;SDS011;8798;51.938;4.348;2023-05-02T00:40:09;10.07;;;4.90;;
17361;SDS011;8798;51.938;4.348;2023-05-02T00:42:39;10.53;;;5.00;;
17361;SDS011;8798;51.938;4.348;2023-05-02T00:45:07;8.77;;;4.40;;
17361;SDS011;8798;51.938;4.348;2023-05-02T00:47:35;7.37;;;3.83;;
17361;SDS011;8798;51.938;4.348;2023-05-02T00:50:03;6.87;;;3.30;;
17361;SDS011;8798;51.938;4.348;2023-05-02T00:52:32;7.13;;;3.23;;
17361;SDS011;8798;51.938;4.348;2023-05-02T00:55:00;8.13;;;3.10;;
17361;SDS011;8798;51.938;4.348;2023-05-02T00:57:29;5.27;;;2.80;;
17361;SDS011;8798;51.938;4.348;2023-05-02T00:59:58;4.93;;;3.00;;
17361;SDS011;8798;51.938;4.348;2023-05-02T01:02:29;4.43;;;2.50;;
17361;SDS011;8798;51.938;4.348;2023-05-02T01:05:07;6.37;;;2.13;;
17361;SDS011;8798;51.938;4.348;2023-05-02T01:07:42;4.40;;;2.13;;
17361;SDS011;8798;51.938;4.348;2023-05-02T01:10:22;5.70;;;2.30;;
17361;SDS011;8798;51.938;4.348;2023-05-02T01:13:02;5.80;;;1.87;;
17361;SDS011;8798;51.938;4.348;2023-05-02T01:15:37;4.47;;;1.83;;
17361;SDS011;8798;51.938;4.348;2023-05-02T01:18:07;5.20;;;1.83;;
17361;SDS011;8798;51.938;4.348;2023-05-02T01:20:37;3.40;;;2.00;;
17361;SDS011;8798;51.938;4.348;2023-05-02T01:23:09;5.73;;;2.23;;
17361;SDS011;8798;51.938;4.348;2023-05-02T01:25:48;5.43;;;1.87;;
17361;SDS011;8798;51.938;4.348;2023-05-02T01:28:29;5.93;;;1.43;;
17361;SDS011;8798;51.938;4.348;2023-05-02T01:31:04;9.63;;;1.97;;
17361;SDS011;8798;51.938;4.348;2023-05-02T01:33:33;6.27;;;1.57;;
17361;SDS011;8798;51.938;4.348;2023-05-02T01:36:02;6.43;;;1.90;;
17361;SDS011;8798;51.938;4.348;2023-05-02T01:38:31;5.60;;;1.77;;
17361;SDS011;8798;51.938;4.348;2023-05-02T01:41:01;4.03;;;1.73;;
17361;SDS011;8798;51.938;4.348;2023-05-02T01:43:32;6.17;;;1.90;;
17361;SDS011;8798;51.938;4.348;2023-05-02T01:46:01;3.40;;;1.63;;
17361;SDS011;8798;51.938;4.348;2023-05-02T01:48:32;6.90;;;1.60;;
17361;SDS011;8798;51.938;4.348;2023-05-02T01:51:01;4.00;;;1.60;;
17361;SDS011;8798;51.938;4.348;2023-05-02T01:53:31;5.03;;;1.47;;
17361;SDS011;8798;51.938;4.348;2023-05-02T01:56:02;2.70;;;1.30;;
17361;SDS011;8798;51.938;4.348;2023-05-02T01:58:31;6.17;;;1.47;;
17361;SDS011;8798;51.938;4.348;2023-05-02T02:01:01;3.70;;;1.47;;
17361;SDS011;8798;51.938;4.348;2023-05-02T02:03:32;5.20;;;1.40;;
17361;SDS011;8798;51.938;4.348;2023-05-02T02:06:00;7.30;;;1.60;;
17361;SDS011;8798;51.938;4.348;2023-05-02T02:08:30;8.00;;;1.90;;
17361;SDS011;8798;51.938;4.348;2023-05-02T02:10:58;8.63;;;1.50;;
17361;SDS011;8798;51.938;4.348;2023-05-02T02:13:34;5.70;;;1.50;;
17361;SDS011;8798;51.938;4.348;2023-05-02T02:16:06;4.27;;;1.20;;
17361;SDS011;8798;51.938;4.348;2023-05-02T02:18:38;5.47;;;1.53;;
17361;SDS011;8798;51.938;4.348;2023-05-02T02:21:06;3.63;;;1.10;;
17361;SDS011;8798;51.938;4.348;2023-05-02T02:23:37;6.37;;;1.50;;
17361;SDS011;8798;51.938;4.348;2023-05-02T02:26:08;3.37;;;1.03;;
17361;SDS011;8798;51.938;4.348;2023-05-02T02:28:37;7.37;;;1.30;;
17361;SDS011;8798;51.938;4.348;2023-05-02T02:31:05;2.27;;;1.20;;
17361;SDS011;8798;51.938;4.348;2023-05-02T02:33:33;2.23;;;1.03;;
17361;SDS011;8798;51.938;4.348;2023-05-02T02:36:11;6.53;;;1.80;;
17361;SDS011;8798;51.938;4.348;2023-05-02T02:38:47;4.00;;;1.40;;
17361;SDS011;8798;51.938;4.348;2023-05-02T02:41:24;3.37;;;1.57;;
17361;SDS011;8798;51.938;4.348;2023-05-02T02:43:59;2.37;;;1.30;;
17361;SDS011;8798;51.938;4.348;2023-05-02T02:46:33;3.77;;;1.17;;
17361;SDS011;8798;51.938;4.348;2023-05-02T02:49:15;4.13;;;1.20;;
17361;SDS011;8798;51.938;4.348;2023-05-02T02:51:52;3.73;;;1.10;;
17361;SDS011;8798;51.938;4.348;2023-05-02T02:54:30;1.63;;;0.90;;
17361;SDS011;8798;51.938;4.348;2023-05-02T02:57:03;3.73;;;1.10;;
17361;SDS011;8798;51.938;4.348;2023-05-02T02:59:41;3.83;;;1.00;;
17361;SDS011;8798;51.938;4.348;2023-05-02T03:02:18;3.13;;;0.97;;
17361;SDS011;8798;51.938;4.348;2023-05-02T03:04:53;4.80;;;0.97;;
17361;SDS011;8798;51.938;4.348;2023-05-02T03:07:27;7.13;;;1.20;;
17361;SDS011;8798;51.938;4.348;2023-05-02T03:09:55;5.70;;;1.23;;
17361;SDS011;8798;51.938;4.348;2023-05-02T03:12:24;3.17;;;0.90;;
17361;SDS011;8798;51.938;4.348;2023-05-02T03:14:51;3.07;;;0.93;;
17361;SDS011;8798;51.938;4.348;2023-05-02T03:17:28;3.63;;;0.80;;
17361;SDS011;8798;51.938;4.348;2023-05-02T03:19:56;7.80;;;1.10;;
17361;SDS011;8798;51.938;4.348;2023-05-02T03:22:24;4.43;;;1.03;;
17361;SDS011;8798;51.938;4.348;2023-05-02T03:24:53;3.90;;;0.70;;
17361;SDS011;8798;51.938;4.348;2023-05-02T03:27:21;1.50;;;0.83;;
17361;SDS011;8798;51.938;4.348;2023-05-02T03:29:49;3.83;;;0.83;;
17361;SDS011;8798;51.938;4.348;2023-05-02T03:32:17;2.73;;;1.00;;
17361;SDS011;8798;51.938;4.348;2023-05-02T03:34:45;3.83;;;0.83;;
17361;SDS011;8798;51.938;4.348;2023-05-02T03:37:12;3.97;;;1.23;;
17361;SDS011;8798;51.938;4.348;2023-05-02T03:39:40;1.53;;;0.80;;
17361;SDS011;8798;51.938;4.348;2023-05-02T03:42:09;3.20;;;0.90;;
17361;SDS011;8798;51.938;4.348;2023-05-02T03:44:37;5.33;;;0.80;;
17361;SDS011;8798;51.938;4.348;2023-05-02T03:47:05;6.97;;;0.90;;
17361;SDS011;8798;51.938;4.348;2023-05-02T03:49:33;1.80;;;0.97;;
17361;SDS011;8798;51.938;4.348;2023-05-02T03:52:02;4.07;;;1.00;;
17361;SDS011;8798;51.938;4.348;2023-05-02T03:54:30;5.40;;;1.10;;
17361;SDS011;8798;51.938;4.348;2023-05-02T03:56:58;4.33;;;1.10;;
17361;SDS011;8798;51.938;4.348;2023-05-02T03:59:28;2.67;;;0.83;;
17361;SDS011;8798;51.938;4.348;2023-05-02T04:01:59;7.77;;;1.20;;
17361;SDS011;8798;51.938;4.348;2023-05-02T04:04:27;3.43;;;1.17;;
17361;SDS011;8798;51.938;4.348;2023-05-02T04:06:54;3.97;;;0.87;;
17361;SDS011;8798;51.938;4.348;2023-05-02T04:09:22;4.03;;;1.00;;
17361;SDS011;8798;51.938;4.348;2023-05-02T04:11:51;2.47;;;0.90;;
17361;SDS011;8798;51.938;4.348;2023-05-02T04:14:18;2.93;;;0.97;;
17361;SDS011;8798;51.938;4.348;2023-05-02T04:16:48;4.00;;;1.07;;
17361;SDS011;8798;51.938;4.348;2023-05-02T04:19:16;3.30;;;0.97;;
17361;SDS011;8798;51.938;4.348;2023-05-02T04:21:44;2.93;;;1.00;;
17361;SDS011;8798;51.938;4.348;2023-05-02T04:24:12;2.20;;;0.83;;
17361;SDS011;8798;51.938;4.348;2023-05-02T04:26:40;2.73;;;1.03;;
17361;SDS011;8798;51.938;4.348;2023-05-02T04:29:08;1.80;;;0.90;;
17361;SDS011;8798;51.938;4.348;2023-05-02T04:31:36;3.57;;;1.00;;
17361;SDS011;8798;51.938;4.348;2023-05-02T04:34:05;4.37;;;0.93;;
17361;SDS011;8798;51.938;4.348;2023-05-02T04:36:33;5.30;;;1.07;;
17361;SDS011;8798;51.938;4.348;2023-05-02T04:39:01;7.50;;;1.23;;
17361;SDS011;8798;51.938;4.348;2023-05-02T04:41:30;4.43;;;1.10;;
17361;SDS011;8798;51.938;4.348;2023-05-02T04:43:57;3.10;;;0.90;;
17361;SDS011;8798;51.938;4.348;2023-05-02T04:46:25;2.43;;;0.90;;
17361;SDS011;8798;51.938;4.348;2023-05-02T04:48:53;6.10;;;1.37;;
17361;SDS011;8798;51.938;4.348;2023-05-02T04:51:22;4.97;;;1.13;;
17361;SDS011;8798;51.938;4.348;2023-05-02T04:53:50;2.30;;;0.80;;
17361;SDS011;8798;51.938;4.348;2023-05-02T04:56:18;4.27;;;1.10;;
17361;SDS011;8798;51.938;4.348;2023-05-02T04:58:47;5.67;;;1.27;;
17361;SDS011;8798;51.938;4.348;2023-05-02T05:01:14;4.23;;;1.20;;
17361;SDS011;8798;51.938;4.348;2023-05-02T05:03:43;5.07;;;1.30;;
17361;SDS011;8798;51.938;4.348;2023-05-02T05:06:11;4.33;;;1.20;;
17361;SDS011;8798;51.938;4.348;2023-05-02T05:08:40;7.40;;;1.17;;
17361;SDS011;8798;51.938;4.348;2023-05-02T05:11:10;5.33;;;1.20;;
17361;SDS011;8798;51.938;4.348;2023-05-02T05:13:38;4.83;;;1.13;;
17361;SDS011;8798;51.938;4.348;2023-05-02T05:16:07;7.70;;;1.40;;
17361;SDS011;8798;51.938;4.348;2023-05-02T05:18:35;3.10;;;1.10;;
17361;SDS011;8798;51.938;4.348;2023-05-02T05:21:06;6.33;;;1.47;;
17361;SDS011;8798;51.938;4.348;2023-05-02T05:23:34;3.73;;;1.53;;
17361;SDS011;8798;51.938;4.348;2023-05-02T05:26:09;6.83;;;1.47;;
17361;SDS011;8798;51.938;4.348;2023-05-02T05:28:38;4.83;;;1.33;;
17361;SDS011;8798;51.938;4.348;2023-05-02T05:31:06;10.37;;;2.47;;
17361;SDS011;8798;51.938;4.348;2023-05-02T05:33:34;8.03;;;1.93;;
17361;SDS011;8798;51.938;4.348;2023-05-02T05:36:02;4.83;;;1.30;;
17361;SDS011;8798;51.938;4.348;2023-05-02T05:38:32;7.77;;;1.43;;
17361;SDS011;8798;51.938;4.348;2023-05-02T05:40:59;6.87;;;1.40;;
17361;SDS011;8798;51.938;4.348;2023-05-02T05:43:29;7.07;;;1.60;;
17361;SDS011;8798;51.938;4.348;2023-05-02T05:45:57;8.50;;;2.10;;
17361;SDS011;8798;51.938;4.348;2023-05-02T05:48:24;10.17;;;1.50;;
17361;SDS011;8798;51.938;4.348;2023-05-02T05:50:52;5.27;;;1.53;;
17361;SDS011;8798;51.938;4.348;2023-05-02T05:53:20;5.53;;;1.47;;
17361;SDS011;8798;51.938;4.348;2023-05-02T05:55:48;8.53;;;1.60;;
17361;SDS011;8798;51.938;4.348;2023-05-02T05:58:16;11.60;;;2.00;;
17361;SDS011;8798;51.938;4.348;2023-05-02T06:00:45;6.23;;;1.73;;
17361;SDS011;8798;51.938;4.348;2023-05-02T06:03:13;4.23;;;1.40;;
17361;SDS011;8798;51.938;4.348;2023-05-02T06:05:41;6.07;;;1.60;;
17361;SDS011;8798;51.938;4.348;2023-05-02T06:08:09;5.43;;;1.43;;
17361;SDS011;8798;51.938;4.348;2023-05-02T06:10:36;8.73;;;1.33;;
17361;SDS011;8798;51.938;4.348;2023-05-02T06:13:04;5.00;;;1.47;;
17361;SDS011;8798;51.938;4.348;2023-05-02T06:15:32;5.40;;;1.70;;
17361;SDS011;8798;51.938;4.348;2023-05-02T06:18:02;5.47;;;1.37;;
17361;SDS011;8798;51.938;4.348;2023-05-02T06:20:30;5.37;;;1.33;;
17361;SDS011;8798;51.938;4.348;2023-05-02T06:22:58;6.10;;;1.30;;
17361;SDS011;8798;51.938;4.348;2023-05-02T06:25:25;7.70;;;1.57;;
17361;SDS011;8798;51.938;4.348;2023-05-02T06:27:54;6.77;;;1.57;;
17361;SDS011;8798;51.938;4.348;2023-05-02T06:30:22;6.67;;;1.20;;
17361;SDS011;8798;51.938;4.348;2023-05-02T06:32:50;6.07;;;1.20;;
17361;SDS011;8798;51.938;4.348;2023-05-02T06:35:20;5.13;;;1.60;;
17361;SDS011;8798;51.938;4.348;2023-05-02T06:37:47;8.83;;;1.77;;
17361;SDS011;8798;51.938;4.348;2023-05-02T06:40:15;3.80;;;1.10;;
17361;SDS011;8798;51.938;4.348;2023-05-02T06:42:43;5.20;;;1.30;;
17361;SDS011;8798;51.938;4.348;2023-05-02T06:45:11;5.07;;;1.67;;
17361;SDS011;8798;51.938;4.348;2023-05-02T06:47:39;3.97;;;1.50;;
17361;SDS011;8798;51.938;4.348;2023-05-02T06:50:07;6.57;;;1.60;;
17361;SDS011;8798;51.938;4.348;2023-05-02T06:52:37;9.70;;;1.70;;
17361;SDS011;8798;51.938;4.348;2023-05-02T06:55:05;3.87;;;1.23;;
17361;SDS011;8798;51.938;4.348;2023-05-02T06:57:33;3.47;;;1.20;;
17361;SDS011;8798;51.938;4.348;2023-05-02T07:00:01;3.20;;;1.07;;
17361;SDS011;8798;51.938;4.348;2023-05-02T07:02:30;6.53;;;1.43;;
17361;SDS011;8798;51.938;4.348;2023-05-02T07:04:57;8.70;;;1.07;;
17361;SDS011;8798;51.938;4.348;2023-05-02T07:07:25;4.93;;;1.20;;
17361;SDS011;8798;51.938;4.348;2023-05-02T07:09:54;4.50;;;1.37;;
17361;SDS011;8798;51.938;4.348;2023-05-02T07:12:23;4.33;;;1.20;;
17361;SDS011;8798;51.938;4.348;2023-05-02T07:14:52;5.07;;;1.23;;
17361;SDS011;8798;51.938;4.348;2023-05-02T07:17:19;4.97;;;1.23;;
17361;SDS011;8798;51.938;4.348;2023-05-02T07:19:47;4.33;;;1.03;;
17361;SDS011;8798;51.938;4.348;2023-05-02T07:22:16;3.43;;;1.20;;
17361;SDS011;8798;51.938;4.348;2023-05-02T07:24:44;3.03;;;1.17;;
17361;SDS011;8798;51.938;4.348;2023-05-02T07:27:13;3.10;;;1.20;;
17361;SDS011;8798;51.938;4.348;2023-05-02T07:29:41;3.90;;;1.20;;
17361;SDS011;8798;51.938;4.348;2023-05-02T07:32:09;4.57;;;1.27;;
17361;SDS011;8798;51.938;4.348;2023-05-02T07:34:37;6.17;;;1.20;;
17361;SDS011;8798;51.938;4.348;2023-05-02T07:37:05;5.07;;;1.20;;
17361;SDS011;8798;51.938;4.348;2023-05-02T07:39:32;4.70;;;1.40;;
17361;SDS011;8798;51.938;4.348;2023-05-02T07:42:00;5.43;;;1.50;;
17361;SDS011;8798;51.938;4.348;2023-05-02T07:44:31;4.00;;;1.53;;
17361;SDS011;8798;51.938;4.348;2023-05-02T07:47:00;4.67;;;1.10;;
17361;SDS011;8798;51.938;4.348;2023-05-02T07:49:27;4.70;;;0.87;;
17361;SDS011;8798;51.938;4.348;2023-05-02T07:51:56;4.23;;;1.50;;
17361;SDS011;8798;51.938;4.348;2023-05-02T07:54:24;4.70;;;1.60;;
17361;SDS011;8798;51.938;4.348;2023-05-02T07:56:52;3.87;;;1.43;;
17361;SDS011;8798;51.938;4.348;2023-05-02T07:59:23;7.33;;;1.97;;
17361;SDS011;8798;51.938;4.348;2023-05-02T08:01:52;4.27;;;1.20;;
17361;SDS011;8798;51.938;4.348;2023-05-02T08:04:20;4.90;;;1.27;;
17361;SDS011;8798;51.938;4.348;2023-05-02T08:06:48;4.93;;;1.50;;
17361;SDS011;8798;51.938;4.348;2023-05-02T08:09:16;10.10;;;1.87;;
17361;SDS011;8798;51.938;4.348;2023-05-02T08:11:44;2.27;;;0.90;;
17361;SDS011;8798;51.938;4.348;2023-05-02T08:14:12;3.73;;;1.07;;
17361;SDS011;8798;51.938;4.348;2023-05-02T08:16:40;2.00;;;0.90;;
17361;SDS011;8798;51.938;4.348;2023-05-02T08:19:12;3.57;;;0.97;;
17361;SDS011;8798;51.938;4.348;2023-05-02T08:21:41;6.47;;;1.10;;
17361;SDS011;8798;51.938;4.348;2023-05-02T08:24:09;4.40;;;1.00;;
17361;SDS011;8798;51.938;4.348;2023-05-02T08:26:39;3.10;;;0.97;;
17361;SDS011;8798;51.938;4.348;2023-05-02T08:29:07;6.23;;;1.10;;
17361;SDS011;8798;51.938;4.348;2023-05-02T08:31:36;3.47;;;1.00;;
17361;SDS011;8798;51.938;4.348;2023-05-02T08:34:04;1.80;;;0.80;;
17361;SDS011;8798;51.938;4.348;2023-05-02T08:36:34;5.13;;;1.10;;
17361;SDS011;8798;51.938;4.348;2023-05-02T08:39:02;3.57;;;0.97;;
17361;SDS011;8798;51.938;4.348;2023-05-02T08:41:30;3.17;;;1.03;;
17361;SDS011;8798;51.938;4.348;2023-05-02T08:43:58;4.30;;;0.90;;
17361;SDS011;8798;51.938;4.348;2023-05-02T08:46:26;3.17;;;1.13;;
17361;SDS011;8798;51.938;4.348;2023-05-02T08:48:55;4.40;;;1.10;;
17361;SDS011;8798;51.938;4.348;2023-05-02T08:51:25;1.73;;;0.80;;
17361;SDS011;8798;51.938;4.348;2023-05-02T08:53:56;4.77;;;1.07;;
17361;SDS011;8798;51.938;4.348;2023-05-02T08:56:28;1.50;;;1.20;;
17361;SDS011;8798;51.938;4.348;2023-05-02T08:58:56;4.90;;;0.97;;
17361;SDS011;8798;51.938;4.348;2023-05-02T09:01:27;1.93;;;0.90;;
17361;SDS011;8798;51.938;4.348;2023-05-02T09:03:57;2.90;;;1.00;;
17361;SDS011;8798;51.938;4.348;2023-05-02T09:06:25;4.57;;;0.80;;
17361;SDS011;8798;51.938;4.348;2023-05-02T09:08:59;2.83;;;0.90;;
17361;SDS011;8798;51.938;4.348;2023-05-02T09:11:28;2.03;;;0.80;;
17361;SDS011;8798;51.938;4.348;2023-05-02T09:13:56;3.30;;;1.10;;
17361;SDS011;8798;51.938;4.348;2023-05-02T09:16:29;4.60;;;1.00;;
17361;SDS011;8798;51.938;4.348;2023-05-02T09:19:05;3.60;;;0.77;;
17361;SDS011;8798;51.938;4.348;2023-05-02T09:21:36;3.27;;;1.13;;
17361;SDS011;8798;51.938;4.348;2023-05-02T09:24:17;3.57;;;0.80;;
17361;SDS011;8798;51.938;4.348;2023-05-02T09:26:55;2.07;;;1.10;;
17361;SDS011;8798;51.938;4.348;2023-05-02T09:29:25;3.23;;;0.80;;
17361;SDS011;8798;51.938;4.348;2023-05-02T09:31:56;3.20;;;1.00;;
17361;SDS011;8798;51.938;4.348;2023-05-02T09:34:24;1.20;;;0.83;;
17361;SDS011;8798;51.938;4.348;2023-05-02T09:36:51;4.43;;;1.00;;
17361;SDS011;8798;51.938;4.348;2023-05-02T09:39:22;5.33;;;1.20;;
17361;SDS011;8798;51.938;4.348;2023-05-02T09:41:51;3.53;;;1.10;;
17361;SDS011;8798;51.938;4.348;2023-05-02T09:44:20;2.57;;;0.77;;
17361;SDS011;8798;51.938;4.348;2023-05-02T09:46:49;1.57;;;0.77;;
17361;SDS011;8798;51.938;4.348;2023-05-02T09:49:24;2.70;;;1.20;;
17361;SDS011;8798;51.938;4.348;2023-05-02T09:52:09;5.47;;;1.17;;
17361;SDS011;8798;51.938;4.348;2023-05-02T09:54:38;3.60;;;1.00;;
17361;SDS011;8798;51.938;4.348;2023-05-02T09:57:08;2.80;;;1.20;;
17361;SDS011;8798;51.938;4.348;2023-05-02T09:59:52;3.47;;;0.90;;
17361;SDS011;8798;51.938;4.348;2023-05-02T10:02:20;3.77;;;1.00;;
17361;SDS011;8798;51.938;4.348;2023-05-02T10:04:48;4.43;;;1.20;;
17361;SDS011;8798;51.938;4.348;2023-05-02T10:07:18;4.10;;;1.20;;
17361;SDS011;8798;51.938;4.348;2023-05-02T10:09:48;5.83;;;1.10;;
17361;SDS011;8798;51.938;4.348;2023-05-02T10:12:20;4.03;;;1.20;;
17361;SDS011;8798;51.938;4.348;2023-05-02T10:14:54;4.63;;;1.17;;
17361;SDS011;8798;51.938;4.348;2023-05-02T10:17:27;2.97;;;1.10;;
17361;SDS011;8798;51.938;4.348;2023-05-02T10:19:59;3.03;;;1.00;;
17361;SDS011;8798;51.938;4.348;2023-05-02T10:22:30;2.57;;;1.30;;
17361;SDS011;8798;51.938;4.348;2023-05-02T10:25:01;4.87;;;1.17;;
17361;SDS011;8798;51.938;4.348;2023-05-02T10:27:31;2.23;;;1.10;;
17361;SDS011;8798;51.938;4.348;2023-05-02T10:29:59;4.63;;;1.33;;
17361;SDS011;8798;51.938;4.348;2023-05-02T10:32:32;2.90;;;1.20;;
17361;SDS011;8798;51.938;4.348;2023-05-02T10:35:01;4.23;;;1.00;;
17361;SDS011;8798;51.938;4.348;2023-05-02T10:37:33;2.70;;;1.10;;
17361;SDS011;8798;51.938;4.348;2023-05-02T10:40:12;4.40;;;1.33;;
17361;SDS011;8798;51.938;4.348;2023-05-02T10:42:42;4.90;;;1.27;;
17361;SDS011;8798;51.938;4.348;2023-05-02T10:45:28;8.37;;;2.70;;
17361;SDS011;8798;51.938;4.348;2023-05-02T10:48:15;3.47;;;1.30;;
17361;SDS011;8798;51.938;4.348;2023-05-02T10:50:46;5.03;;;1.10;;
17361;SDS011;8798;51.938;4.348;2023-05-02T10:53:22;4.53;;;0.90;;
17361;SDS011;8798;51.938;4.348;2023-05-02T11:02:01;5.63;;;1.40;;
17361;SDS011;8798;51.938;4.348;2023-05-02T11:07:32;6.30;;;1.00;;
17361;SDS011;8798;51.938;4.348;2023-05-02T11:13:01;2.23;;;1.10;;
17361;SDS011;8798;51.938;4.348;2023-05-02T11:21:29;5.43;;;1.13;;
17361;SDS011;8798;51.938;4.348;2023-05-02T11:30:11;2.40;;;1.10;;
17361;SDS011;8798;51.938;4.348;2023-05-02T11:35:48;1.80;;;1.00;;
17361;SDS011;8798;51.938;4.348;2023-05-02T11:38:17;5.53;;;1.50;;
17361;SDS011;8798;51.938;4.348;2023-05-02T11:40:50;5.00;;;1.60;;
17361;SDS011;8798;51.938;4.348;2023-05-02T11:43:31;4.60;;;1.20;;
17361;SDS011;8798;51.938;4.348;2023-05-02T11:46:05;4.87;;;1.43;;
17361;SDS011;8798;51.938;4.348;2023-05-02T11:48:42;5.53;;;1.00;;
17361;SDS011;8798;51.938;4.348;2023-05-02T11:51:11;4.07;;;1.13;;
17361;SDS011;8798;51.938;4.348;2023-05-02T11:53:39;3.53;;;1.30;;
17361;SDS011;8798;51.938;4.348;2023-05-02T11:56:08;3.63;;;1.37;;
17361;SDS011;8798;51.938;4.348;2023-05-02T11:58:36;3.57;;;1.23;;
17361;SDS011;8798;51.938;4.348;2023-05-02T12:01:16;2.77;;;1.20;;
17361;SDS011;8798;51.938;4.348;2023-05-02T12:03:48;4.27;;;1.57;;
17361;SDS011;8798;51.938;4.348;2023-05-02T12:06:31;5.73;;;1.60;;
17361;SDS011;8798;51.938;4.348;2023-05-02T12:09:07;3.63;;;1.20;;
17361;SDS011;8798;51.938;4.348;2023-05-02T12:11:42;2.63;;;1.40;;
17361;SDS011;8798;51.938;4.348;2023-05-02T12:14:12;4.37;;;1.30;;
17361;SDS011;8798;51.938;4.348;2023-05-02T12:16:42;3.57;;;1.10;;
17361;SDS011;8798;51.938;4.348;2023-05-02T12:19:11;2.73;;;1.20;;
17361;SDS011;8798;51.938;4.348;2023-05-02T12:21:42;4.90;;;1.37;;
17361;SDS011;8798;51.938;4.348;2023-05-02T12:24:15;3.47;;;1.33;;
17361;SDS011;8798;51.938;4.348;2023-05-02T12:29:40;6.10;;;1.20;;
17361;SDS011;8798;51.938;4.348;2023-05-02T12:32:12;3.73;;;1.10;;
17361;SDS011;8798;51.938;4.348;2023-05-02T12:34:42;2.20;;;1.00;;
17361;SDS011;8798;51.938;4.348;2023-05-02T12:37:12;4.77;;;1.37;;
17361;SDS011;8798;51.938;4.348;2023-05-02T12:39:52;2.80;;;0.93;;
17361;SDS011;8798;51.938;4.348;2023-05-02T12:42:21;2.93;;;1.13;;
17361;SDS011;8798;51.938;4.348;2023-05-02T12:44:53;3.80;;;1.20;;
17361;SDS011;8798;51.938;4.348;2023-05-02T12:47:24;4.10;;;1.00;;
17361;SDS011;8798;51.938;4.348;2023-05-02T12:50:00;6.10;;;1.50;;
17361;SDS011;8798;51.938;4.348;2023-05-02T12:52:48;5.83;;;1.13;;
17361;SDS011;8798;51.938;4.348;2023-05-02T12:55:23;4.13;;;1.30;;
17361;SDS011;8798;51.938;4.348;2023-05-02T12:57:58;5.97;;;1.30;;
17361;SDS011;8798;51.938;4.348;2023-05-02T13:00:32;2.50;;;0.97;;
17361;SDS011;8798;51.938;4.348;2023-05-02T13:03:14;3.90;;;1.33;;
17361;SDS011;8798;51.938;4.348;2023-05-02T13:05:42;4.37;;;0.93;;
17361;SDS011;8798;51.938;4.348;2023-05-02T13:08:10;3.90;;;1.03;;
17361;SDS011;8798;51.938;4.348;2023-05-02T13:10:41;3.60;;;1.17;;
17361;SDS011;8798;51.938;4.348;2023-05-02T13:13:09;3.33;;;1.00;;
17361;SDS011;8798;51.938;4.348;2023-05-02T13:15:38;3.77;;;1.40;;
17361;SDS011;8798;51.938;4.348;2023-05-02T13:18:06;3.20;;;1.00;;
17361;SDS011;8798;51.938;4.348;2023-05-02T13:20:42;3.53;;;1.03;;
17361;SDS011;8798;51.938;4.348;2023-05-02T13:23:09;2.13;;;1.00;;
17361;SDS011;8798;51.938;4.348;2023-05-02T13:25:38;3.43;;;1.30;;
17361;SDS011;8798;51.938;4.348;2023-05-02T13:28:06;2.53;;;1.10;;
17361;SDS011;8798;51.938;4.348;2023-05-02T13:30:34;4.07;;;1.30;;
17361;SDS011;8798;51.938;4.348;2023-05-02T13:33:01;3.27;;;1.03;;
17361;SDS011;8798;51.938;4.348;2023-05-02T13:35:29;3.77;;;1.20;;
17361;SDS011;8798;51.938;4.348;2023-05-02T13:38:01;4.90;;;1.23;;
17361;SDS011;8798;51.938;4.348;2023-05-02T13:40:29;4.17;;;1.10;;
17361;SDS011;8798;51.938;4.348;2023-05-02T13:42:57;2.17;;;1.00;;
17361;SDS011;8798;51.938;4.348;2023-05-02T13:45:25;2.73;;;1.30;;
17361;SDS011;8798;51.938;4.348;2023-05-02T13:47:53;6.77;;;1.73;;
17361;SDS011;8798;51.938;4.348;2023-05-02T13:50:21;2.87;;;1.30;;
17361;SDS011;8798;51.938;4.348;2023-05-02T13:52:49;2.43;;;1.00;;
17361;SDS011;8798;51.938;4.348;2023-05-02T13:55:18;1.80;;;0.90;;
17361;SDS011;8798;51.938;4.348;2023-05-02T13:57:46;3.97;;;1.17;;
17361;SDS011;8798;51.938;4.348;2023-05-02T14:00:15;2.47;;;1.17;;
17361;SDS011;8798;51.938;4.348;2023-05-02T14:02:43;6.13;;;1.10;;
17361;SDS011;8798;51.938;4.348;2023-05-02T14:05:13;2.67;;;0.97;;
17361;SDS011;8798;51.938;4.348;2023-05-02T14:07:41;4.60;;;1.40;;
17361;SDS011;8798;51.938;4.348;2023-05-02T14:10:09;3.80;;;1.30;;
17361;SDS011;8798;51.938;4.348;2023-05-02T14:12:38;4.77;;;1.37;;
17361;SDS011;8798;51.938;4.348;2023-05-02T14:15:07;5.30;;;1.33;;
17361;SDS011;8798;51.938;4.348;2023-05-02T14:17:35;2.30;;;1.10;;
17361;SDS011;8798;51.938;4.348;2023-05-02T14:20:03;2.90;;;1.37;;
17361;SDS011;8798;51.938;4.348;2023-05-02T14:22:32;2.53;;;1.03;;
17361;SDS011;8798;51.938;4.348;2023-05-02T14:25:00;4.27;;;1.50;;
17361;SDS011;8798;51.938;4.348;2023-05-02T14:27:28;3.57;;;1.20;;
17361;SDS011;8798;51.938;4.348;2023-05-02T14:29:57;4.40;;;1.20;;
17361;SDS011;8798;51.938;4.348;2023-05-02T14:32:26;6.20;;;1.53;;
17361;SDS011;8798;51.938;4.348;2023-05-02T14:34:54;4.63;;;1.40;;
17361;SDS011;8798;51.938;4.348;2023-05-02T14:37:22;3.13;;;1.30;;
17361;SDS011;8798;51.938;4.348;2023-05-02T14:39:50;4.57;;;1.40;;
17361;SDS011;8798;51.938;4.348;2023-05-02T14:42:21;2.37;;;1.17;;
17361;SDS011;8798;51.938;4.348;2023-05-02T14:44:49;3.00;;;1.07;;
17361;SDS011;8798;51.938;4.348;2023-05-02T14:47:19;3.00;;;1.00;;
17361;SDS011;8798;51.938;4.348;2023-05-02T14:49:47;3.33;;;1.40;;
17361;SDS011;8798;51.938;4.348;2023-05-02T14:52:15;3.97;;;1.30;;
17361;SDS011;8798;51.938;4.348;2023-05-02T14:54:43;2.00;;;1.27;;
17361;SDS011;8798;51.938;4.348;2023-05-02T14:57:12;5.40;;;1.30;;
17361;SDS011;8798;51.938;4.348;2023-05-02T14:59:40;7.13;;;1.77;;
17361;SDS011;8798;51.938;4.348;2023-05-02T15:02:08;3.67;;;1.20;;
17361;SDS011;8798;51.938;4.348;2023-05-02T15:04:38;8.53;;;1.70;;
17361;SDS011;8798;51.938;4.348;2023-05-02T15:07:06;4.77;;;1.40;;
17361;SDS011;8798;51.938;4.348;2023-05-02T15:09:34;2.73;;;1.20;;
17361;SDS011;8798;51.938;4.348;2023-05-02T15:12:02;4.53;;;1.40;;
17361;SDS011;8798;51.938;4.348;2023-05-02T15:14:30;3.27;;;1.20;;
17361;SDS011;8798;51.938;4.348;2023-05-02T15:16:57;4.30;;;1.40;;
17361;SDS011;8798;51.938;4.348;2023-05-02T15:19:26;2.63;;;1.20;;
17361;SDS011;8798;51.938;4.348;2023-05-02T15:21:55;5.77;;;1.57;;
17361;SDS011;8798;51.938;4.348;2023-05-02T15:24:23;12.30;;;1.90;;
17361;SDS011;8798;51.938;4.348;2023-05-02T15:26:51;5.37;;;1.23;;
17361;SDS011;8798;51.938;4.348;2023-05-02T15:29:19;4.13;;;1.27;;
17361;SDS011;8798;51.938;4.348;2023-05-02T15:31:47;4.60;;;1.50;;
17361;SDS011;8798;51.938;4.348;2023-05-02T15:34:15;3.53;;;1.80;;
17361;SDS011;8798;51.938;4.348;2023-05-02T15:36:43;1.67;;;1.20;;
17361;SDS011;8798;51.938;4.348;2023-05-02T15:39:12;5.80;;;1.53;;
17361;SDS011;8798;51.938;4.348;2023-05-02T15:41:40;4.53;;;1.60;;
17361;SDS011;8798;51.938;4.348;2023-05-02T15:44:08;4.30;;;1.67;;
17361;SDS011;8798;51.938;4.348;2023-05-02T15:46:36;3.93;;;1.40;;